createdAt,value
2023-03-22T00:02:08.279Z,98.40
2023-03-22T00:04:35.082Z,98.40
2023-03-22T00:07:01.817Z,98.40
2023-03-22T00:09:28.631Z,98.40
2023-03-22T00:11:55.336Z,98.30
2023-03-22T00:14:22.070Z,98.30
2023-03-22T00:16:49.320Z,98.30
2023-03-22T00:19:17.407Z,98.30
2023-03-22T00:21:44.604Z,98.20
2023-03-22T00:24:11.412Z,98.20
2023-03-22T00:26:38.131Z,98.20
2023-03-22T00:29:05.964Z,98.20
2023-03-22T00:31:34.149Z,98.20
2023-03-22T00:34:00.859Z,98.20
2023-03-22T00:36:27.588Z,98.20
2023-03-22T00:38:54.235Z,98.20
2023-03-22T00:41:22.730Z,98.20
2023-03-22T00:43:50.642Z,98.10
2023-03-22T00:46:20.754Z,98.10
2023-03-22T00:48:48.483Z,98.20
2023-03-22T00:51:15.444Z,98.20
2023-03-22T00:53:43.743Z,98.20
2023-03-22T00:56:14.060Z,98.20
2023-03-22T00:58:45.551Z,98.10
2023-03-22T01:01:15.802Z,98.10
2023-03-22T01:03:43.798Z,98.10
2023-03-22T01:06:13.971Z,98.10
2023-03-22T01:08:40.665Z,98.10
2023-03-22T01:11:09.539Z,98.10
2023-03-22T01:13:41.748Z,98.20
2023-03-22T01:16:09.744Z,98.20
2023-03-22T01:18:37.006Z,98.20
2023-03-22T01:21:03.867Z,98.20
2023-03-22T01:23:31.851Z,98.20
2023-03-22T01:25:58.854Z,98.20
2023-03-22T01:28:27.170Z,98.30
2023-03-22T01:30:55.270Z,98.40
2023-03-22T01:33:22.520Z,98.40
2023-03-22T01:35:51.555Z,98.40
2023-03-22T01:38:19.056Z,98.50
2023-03-22T01:40:58.678Z,98.60
2023-03-22T01:43:27.037Z,98.60
2023-03-22T01:45:55.052Z,98.60
2023-03-22T01:48:34.113Z,98.60
2023-03-22T01:51:16.119Z,98.60
2023-03-22T01:54:00.972Z,98.50
2023-03-22T01:56:33.367Z,98.50
2023-03-22T01:59:01.500Z,98.50
2023-03-22T02:01:38.557Z,98.40
2023-03-22T02:04:12.963Z,98.40
2023-03-22T02:06:40.073Z,98.40
2023-03-22T02:09:14.163Z,98.40
2023-03-22T02:11:43.922Z,98.30
2023-03-22T02:14:49.310Z,98.20
2023-03-22T02:17:51.106Z,98.10
2023-03-22T02:21:07.844Z,98.10
2023-03-22T02:23:55.647Z,98.10
2023-03-22T02:26:33.588Z,98.00
2023-03-22T02:29:19.142Z,98.00
2023-03-22T02:32:10.739Z,98.00
2023-03-22T02:34:56.065Z,97.90
2023-03-22T02:37:42.859Z,98.30
2023-03-22T02:40:30.244Z,98.00
2023-03-22T02:43:20.560Z,98.10
2023-03-22T02:45:55.226Z,98.20
2023-03-22T02:48:42.174Z,98.20
2023-03-22T02:51:21.284Z,98.20
2023-03-22T02:54:22.569Z,98.20
2023-03-22T02:57:37.537Z,98.20
2023-03-22T03:00:10.760Z,98.30
2023-03-22T03:02:43.261Z,98.30
2023-03-22T03:05:11.736Z,98.40
2023-03-22T03:07:39.358Z,98.40
2023-03-22T03:10:07.445Z,98.40
2023-03-22T03:12:34.166Z,98.50
2023-03-22T03:15:00.983Z,98.50
2023-03-22T03:17:27.708Z,98.50
2023-03-22T03:20:09.517Z,98.50
2023-03-22T03:23:13.637Z,98.50
2023-03-22T03:26:09.353Z,98.50
2023-03-22T03:28:44.780Z,98.60
2023-03-22T03:31:27.049Z,98.60
2023-03-22T03:34:29.069Z,98.60
2023-03-22T03:37:18.556Z,98.60
2023-03-22T03:39:52.723Z,98.60
2023-03-22T03:42:23.709Z,98.60
2023-03-22T03:44:50.947Z,98.70
2023-03-22T03:47:18.568Z,98.60
2023-03-22T03:49:46.165Z,98.70
2023-03-22T03:52:13.350Z,98.70
2023-03-22T03:54:40.932Z,98.70
2023-03-22T03:57:12.044Z,98.70
2023-03-22T03:59:38.697Z,98.70
2023-03-22T04:02:13.416Z,98.70
2023-03-22T04:04:40.116Z,98.70
2023-03-22T04:07:07.124Z,98.70
2023-03-22T04:09:38.131Z,98.70
2023-03-22T04:12:15.219Z,98.70
2023-03-22T04:14:46.218Z,98.60
2023-03-22T04:17:21.199Z,98.60
2023-03-22T04:19:48.157Z,98.60
2023-03-22T04:22:18.425Z,98.60
2023-03-22T04:24:50.118Z,98.50
2023-03-22T04:27:21.028Z,98.50
2023-03-22T04:29:57.906Z,98.50
2023-03-22T04:32:46.002Z,98.50
2023-03-22T04:35:13.363Z,98.50
2023-03-22T04:37:41.633Z,98.90
2023-03-22T04:40:15.987Z,98.50
2023-03-22T04:42:57.417Z,98.50
2023-03-22T04:45:35.064Z,98.60
2023-03-22T04:48:04.690Z,98.50
2023-03-22T04:50:32.595Z,98.60
2023-03-22T04:53:03.271Z,98.50
2023-03-22T04:55:31.642Z,98.50
2023-03-22T04:57:58.388Z,98.50
2023-03-22T05:00:25.064Z,98.60
2023-03-22T05:02:53.328Z,98.60
2023-03-22T05:05:28.410Z,98.60
2023-03-22T05:07:56.228Z,98.60
2023-03-22T05:10:25.881Z,98.60
2023-03-22T05:12:53.785Z,98.60
2023-03-22T05:15:23.707Z,98.60
2023-03-22T05:17:51.892Z,98.70
2023-03-22T05:20:19.558Z,98.70
2023-03-22T05:22:57.115Z,98.70
2023-03-22T05:25:26.389Z,98.70
2023-03-22T05:27:54.138Z,98.70
2023-03-22T05:30:37.995Z,98.70
2023-03-22T05:33:22.024Z,98.70
2023-03-22T05:35:52.081Z,98.70
2023-03-22T05:38:19.091Z,98.70
2023-03-22T05:40:50.219Z,98.70
2023-03-22T05:43:17.089Z,98.70
2023-03-22T05:45:47.957Z,98.70
2023-03-22T05:48:37.888Z,98.70
2023-03-22T05:51:17.422Z,98.70
2023-03-22T05:53:49.183Z,98.80
2023-03-22T05:56:24.105Z,98.80
2023-03-22T05:58:53.108Z,98.80
2023-03-22T06:01:23.006Z,98.80
2023-03-22T06:04:10.049Z,98.90
2023-03-22T06:06:48.753Z,98.80
2023-03-22T06:09:31.037Z,98.80
2023-03-22T06:11:58.572Z,98.80
2023-03-22T06:14:25.458Z,98.80
2023-03-22T06:17:09.205Z,98.80
2023-03-22T06:19:35.982Z,98.80
2023-03-22T06:22:04.837Z,98.80
2023-03-22T06:24:34.085Z,98.80
2023-03-22T06:27:01.681Z,98.80
2023-03-22T06:29:28.647Z,98.80
2023-03-22T06:31:57.958Z,98.80
2023-03-22T06:34:26.172Z,98.90
2023-03-22T06:36:56.020Z,99.00
2023-03-22T06:39:32.625Z,99.00
2023-03-22T06:41:59.483Z,99.10
2023-03-22T06:44:27.087Z,99.10
2023-03-22T06:47:05.445Z,99.10
2023-03-22T06:49:52.530Z,99.20
2023-03-22T06:52:24.132Z,99.20
2023-03-22T06:54:51.723Z,99.20
2023-03-22T06:57:19.505Z,99.10
2023-03-22T06:59:46.246Z,99.00
2023-03-22T07:02:13.468Z,98.90
2023-03-22T07:04:46.115Z,98.80
2023-03-22T07:07:12.974Z,98.70
2023-03-22T07:09:40.606Z,98.70
2023-03-22T07:12:07.538Z,99.00
2023-03-22T07:14:34.434Z,98.60
2023-03-22T07:17:12.515Z,98.50
2023-03-22T07:19:39.448Z,98.40
2023-03-22T07:22:08.945Z,98.40
2023-03-22T07:24:40.323Z,98.30
2023-03-22T07:27:11.460Z,98.30
2023-03-22T07:29:38.401Z,98.20
2023-03-22T07:32:06.113Z,98.30
2023-03-22T07:34:50.719Z,98.60
2023-03-22T07:37:18.810Z,98.90
2023-03-22T07:39:45.765Z,99.00
2023-03-22T07:42:12.712Z,99.10
2023-03-22T07:44:42.848Z,99.10
2023-03-22T07:47:27.185Z,98.80
2023-03-22T07:50:25.966Z,98.50
2023-03-22T07:52:56.044Z,98.40
2023-03-22T07:55:22.913Z,98.20
2023-03-22T07:57:49.750Z,98.10
2023-03-22T08:00:17.157Z,98.00
2023-03-22T08:02:49.929Z,97.80
2023-03-22T08:05:46.215Z,97.60
2023-03-22T08:08:14.857Z,97.50
2023-03-22T08:10:41.905Z,97.50
2023-03-22T08:13:09.066Z,97.20
2023-03-22T08:15:37.382Z,97.00
2023-03-22T08:18:04.624Z,97.00
2023-03-22T08:20:35.542Z,96.80
2023-03-22T08:23:11.239Z,96.40
2023-03-22T08:26:01.021Z,96.20
2023-03-22T08:28:28.556Z,96.30
2023-03-22T08:30:55.262Z,95.60
2023-03-22T08:33:23.691Z,95.40
2023-03-22T08:35:51.003Z,95.20
2023-03-22T08:38:19.521Z,95.00
2023-03-22T08:40:49.863Z,94.80
2023-03-22T08:43:21.058Z,94.70
2023-03-22T08:45:47.945Z,94.70
2023-03-22T08:48:16.777Z,94.70
2023-03-22T08:50:58.878Z,94.70
2023-03-22T08:53:35.884Z,94.80
2023-03-22T08:56:24.721Z,95.00
2023-03-22T08:59:02.075Z,95.00
2023-03-22T09:01:47.702Z,94.90
2023-03-22T09:04:14.534Z,94.80
2023-03-22T09:06:44.106Z,94.90
2023-03-22T09:09:11.826Z,95.00
2023-03-22T09:11:41.157Z,94.70
2023-03-22T09:14:08.920Z,94.40
2023-03-22T09:16:36.056Z,93.90
2023-03-22T09:19:03.204Z,93.50
2023-03-22T09:21:30.984Z,93.30
2023-03-22T09:24:08.577Z,93.10
2023-03-22T09:26:55.257Z,92.90
2023-03-22T09:29:22.892Z,92.90
2023-03-22T09:31:49.589Z,92.90
2023-03-22T09:34:20.448Z,92.90
2023-03-22T09:36:47.541Z,92.80
2023-03-22T09:39:17.134Z,92.80
2023-03-22T09:41:58.737Z,92.80
2023-03-22T09:44:34.679Z,91.80
2023-03-22T09:47:05.490Z,91.90
2023-03-22T09:49:52.497Z,92.00
2023-03-22T09:52:20.019Z,91.80
2023-03-22T09:54:47.276Z,92.60
2023-03-22T09:57:26.134Z,92.50
2023-03-22T10:00:01.010Z,91.80
2023-03-22T10:02:45.737Z,92.00
2023-03-22T10:05:12.361Z,91.60
2023-03-22T10:08:03.246Z,92.50
2023-03-22T10:10:30.495Z,91.50
2023-03-22T10:13:23.800Z,92.10
2023-03-22T10:15:54.006Z,91.00
2023-03-22T10:18:36.162Z,91.50
2023-03-22T10:21:11.219Z,90.90
2023-03-22T10:23:47.018Z,91.10
2023-03-22T10:26:34.757Z,91.00
2023-03-22T10:29:04.595Z,91.00
2023-03-22T10:31:33.542Z,91.90
2023-03-22T10:34:29.221Z,92.20
2023-03-22T10:37:00.729Z,91.90
2023-03-22T10:39:32.496Z,92.70
2023-03-22T10:42:07.251Z,92.40
2023-03-22T10:44:45.168Z,92.20
2023-03-22T10:47:12.344Z,92.10
2023-03-22T10:49:45.297Z,92.60
2023-03-22T10:52:23.819Z,91.80
2023-03-22T10:54:50.896Z,91.50
2023-03-22T10:57:17.582Z,92.10
2023-03-22T10:59:50.958Z,91.80
2023-03-22T11:02:23.855Z,91.20
2023-03-22T11:04:53.776Z,90.90
2023-03-22T11:07:31.413Z,91.00
2023-03-22T11:09:59.922Z,90.00
2023-03-22T11:12:26.993Z,90.70
2023-03-22T11:14:53.669Z,90.70
2023-03-22T11:17:25.340Z,90.20
2023-03-22T11:20:01.707Z,88.80
2023-03-22T11:22:41.090Z,87.80
2023-03-22T11:25:21.189Z,87.80
2023-03-22T11:28:06.503Z,87.00
2023-03-22T11:30:34.684Z,85.90
2023-03-22T11:33:21.510Z,87.80
2023-03-22T11:35:55.232Z,86.60
2023-03-22T11:38:30.840Z,87.50
2023-03-22T11:41:01.980Z,87.10
2023-03-22T11:43:43.807Z,86.40
2023-03-22T11:46:12.262Z,85.10
2023-03-22T11:48:42.062Z,86.40
2023-03-22T11:51:14.739Z,86.40
2023-03-22T11:53:44.882Z,86.40
2023-03-22T11:56:16.895Z,87.00
2023-03-22T11:59:03.963Z,87.50
2023-03-22T12:01:51.423Z,88.20
2023-03-22T12:04:24.654Z,87.80
2023-03-22T12:06:55.679Z,88.00
2023-03-22T12:09:22.366Z,88.10
2023-03-22T12:11:57.283Z,88.50
2023-03-22T12:14:33.552Z,88.70
2023-03-22T12:17:07.755Z,89.40
2023-03-22T12:19:47.014Z,90.00
2023-03-22T12:22:20.839Z,90.40
2023-03-22T12:24:47.503Z,90.90
2023-03-22T12:27:52.900Z,91.00
2023-03-22T12:30:30.357Z,91.00
2023-03-22T12:33:04.113Z,90.90
2023-03-22T12:35:35.147Z,91.20
2023-03-22T12:38:13.627Z,91.40
2023-03-22T12:40:42.132Z,91.30
2023-03-22T12:43:24.307Z,91.50
2023-03-22T12:45:57.811Z,91.50
2023-03-22T12:48:41.227Z,91.80
2023-03-22T12:51:11.926Z,91.80
2023-03-22T12:53:50.868Z,91.70
2023-03-22T12:56:24.957Z,91.50
2023-03-22T12:58:59.080Z,91.60
2023-03-22T13:01:33.202Z,91.70
2023-03-22T13:04:00.396Z,91.60
2023-03-22T13:06:47.724Z,91.80
2023-03-22T13:09:27.617Z,91.80
2023-03-22T13:12:19.315Z,91.80
2023-03-22T13:14:51.788Z,92.00
2023-03-22T13:17:27.386Z,92.30
2023-03-22T13:20:01.883Z,92.50
2023-03-22T13:22:39.854Z,92.50
2023-03-22T13:25:19.257Z,92.40
2023-03-22T13:27:46.053Z,92.20
2023-03-22T13:30:28.188Z,92.50
2023-03-22T13:33:10.192Z,92.20
2023-03-22T13:35:51.323Z,92.20
2023-03-22T13:38:40.558Z,91.90
2023-03-22T13:41:27.963Z,91.60
2023-03-22T13:43:56.747Z,91.70
2023-03-22T13:46:23.578Z,91.70
2023-03-22T13:48:54.629Z,91.70
2023-03-22T13:51:32.145Z,91.40
2023-03-22T13:54:13.936Z,90.80
2023-03-22T13:56:46.806Z,91.60
2023-03-22T13:59:27.270Z,90.90
2023-03-22T14:02:04.705Z,90.80
2023-03-22T14:05:01.877Z,90.60
2023-03-22T14:07:46.907Z,90.30
2023-03-22T14:10:24.811Z,90.00
2023-03-22T14:12:56.328Z,90.20
2023-03-22T14:15:28.398Z,90.00
2023-03-22T14:18:15.744Z,90.10
2023-03-22T14:20:43.538Z,89.40
